sensor_id;sensor_type;location;lat;lon;timestamp;temperature;humidity
16505;HTU21D;8365;51.030;4.696;2023-02-15T00:01:08;4.00;118.99
16505;HTU21D;8365;51.030;4.696;2023-02-15T00:03:39;3.79;118.99
16505;HTU21D;8365;51.030;4.696;2023-02-15T00:06:09;3.88;118.99
16505;HTU21D;8365;51.030;4.696;2023-02-15T00:08:40;4.01;118.99
16505;HTU21D;8365;51.030;4.696;2023-02-15T00:11:13;4.07;118.99
16505;HTU21D;8365;51.030;4.696;2023-02-15T00:13:44;4.19;118.99
16505;HTU21D;8365;51.030;4.696;2023-02-15T00:16:14;4.12;118.99
16505;HTU21D;8365;51.030;4.696;2023-02-15T00:18:45;4.38;117.94
16505;HTU21D;8365;51.030;4.696;2023-02-15T00:21:15;4.42;117.28
16505;HTU21D;8365;51.030;4.696;2023-02-15T00:23:46;4.31;117.71
16505;HTU21D;8365;51.030;4.696;2023-02-15T00:26:16;4.07;118.99
16505;HTU21D;8365;51.030;4.696;2023-02-15T00:28:46;4.28;117.60
16505;HTU21D;8365;51.030;4.696;2023-02-15T00:31:17;4.28;117.95
16505;HTU21D;8365;51.030;4.696;2023-02-15T00:33:48;4.37;116.76
16505;HTU21D;8365;51.030;4.696;2023-02-15T00:36:20;4.39;115.06
16505;HTU21D;8365;51.030;4.696;2023-02-15T00:38:52;4.24;115.64
16505;HTU21D;8365;51.030;4.696;2023-02-15T00:41:23;4.20;117.95
16505;HTU21D;8365;51.030;4.696;2023-02-15T00:43:53;4.29;116.40
16505;HTU21D;8365;51.030;4.696;2023-02-15T00:46:24;4.24;114.42
16505;HTU21D;8365;51.030;4.696;2023-02-15T00:48:54;4.07;116.38
16505;HTU21D;8365;51.030;4.696;2023-02-15T00:51:25;3.78;117.88
16505;HTU21D;8365;51.030;4.696;2023-02-15T00:53:56;3.83;117.06
16505;HTU21D;8365;51.030;4.696;2023-02-15T00:56:28;3.77;117.87
16505;HTU21D;8365;51.030;4.696;2023-02-15T00:58:59;3.70;116.86
16505;HTU21D;8365;51.030;4.696;2023-02-15T01:01:29;3.70;117.22
16505;HTU21D;8365;51.030;4.696;2023-02-15T01:04:00;3.79;115.67
16505;HTU21D;8365;51.030;4.696;2023-02-15T01:06:31;3.57;116.78
16505;HTU21D;8365;51.030;4.696;2023-02-15T01:09:01;3.67;116.86
16505;HTU21D;8365;51.030;4.696;2023-02-15T01:11:32;3.33;118.99
16505;HTU21D;8365;51.030;4.696;2023-02-15T01:14:02;3.27;118.99
16505;HTU21D;8365;51.030;4.696;2023-02-15T01:16:34;3.19;118.99
16505;HTU21D;8365;51.030;4.696;2023-02-15T01:19:04;3.19;118.99
16505;HTU21D;8365;51.030;4.696;2023-02-15T01:21:36;3.30;118.99
16505;HTU21D;8365;51.030;4.696;2023-02-15T01:24:11;3.40;118.99
16505;HTU21D;8365;51.030;4.696;2023-02-15T01:26:43;3.50;118.79
16505;HTU21D;8365;51.030;4.696;2023-02-15T01:29:16;3.65;118.30
16505;HTU21D;8365;51.030;4.696;2023-02-15T01:31:46;3.73;117.30
16505;HTU21D;8365;51.030;4.696;2023-02-15T01:34:16;3.76;117.21
16505;HTU21D;8365;51.030;4.696;2023-02-15T01:36:47;3.76;118.26
16505;HTU21D;8365;51.030;4.696;2023-02-15T01:39:18;3.77;117.76
16505;HTU21D;8365;51.030;4.696;2023-02-15T01:41:49;3.88;117.45
16505;HTU21D;8365;51.030;4.696;2023-02-15T01:44:40;3.73;117.63
16505;HTU21D;8365;51.030;4.696;2023-02-15T01:47:19;3.77;117.49
16505;HTU21D;8365;51.030;4.696;2023-02-15T01:50:00;3.80;116.77
16505;HTU21D;8365;51.030;4.696;2023-02-15T01:52:34;3.90;115.87
16505;HTU21D;8365;51.030;4.696;2023-02-15T01:55:06;3.95;116.70
16505;HTU21D;8365;51.030;4.696;2023-02-15T01:57:38;4.03;114.42
16505;HTU21D;8365;51.030;4.696;2023-02-15T02:00:13;4.03;113.51
16505;HTU21D;8365;51.030;4.696;2023-02-15T02:02:45;4.12;114.09
16505;HTU21D;8365;51.030;4.696;2023-02-15T02:05:17;3.97;112.55
16505;HTU21D;8365;51.030;4.696;2023-02-15T02:07:49;3.84;112.76
16505;HTU21D;8365;51.030;4.696;2023-02-15T02:10:22;3.79;113.16
16505;HTU21D;8365;51.030;4.696;2023-02-15T02:13:04;3.80;113.84
16505;HTU21D;8365;51.030;4.696;2023-02-15T02:16:16;3.86;112.47
16505;HTU21D;8365;51.030;4.696;2023-02-15T02:24:23;3.74;112.78
16505;HTU21D;8365;51.030;4.696;2023-02-15T02:49:34;3.10;116.23
16505;HTU21D;8365;51.030;4.696;2023-02-15T02:52:35;3.12;115.51
16505;HTU21D;8365;51.030;4.696;2023-02-15T02:55:13;3.17;114.57
16505;HTU21D;8365;51.030;4.696;2023-02-15T02:58:03;3.17;115.51
16505;HTU21D;8365;51.030;4.696;2023-02-15T03:00:40;3.30;115.83
16505;HTU21D;8365;51.030;4.696;2023-02-15T03:03:36;3.33;114.99
16505;HTU21D;8365;51.030;4.696;2023-02-15T03:06:12;3.33;115.59
16505;HTU21D;8365;51.030;4.696;2023-02-15T03:08:48;3.42;115.59
16505;HTU21D;8365;51.030;4.696;2023-02-15T03:11:21;3.43;114.38
16505;HTU21D;8365;51.030;4.696;2023-02-15T03:13:53;3.36;113.89
16505;HTU21D;8365;51.030;4.696;2023-02-15T03:16:24;3.34;113.27
16505;HTU21D;8365;51.030;4.696;2023-02-15T03:19:20;3.34;113.90
16505;HTU21D;8365;51.030;4.696;2023-02-15T03:21:56;3.42;114.25
16505;HTU21D;8365;51.030;4.696;2023-02-15T03:24:51;3.28;114.67
16505;HTU21D;8365;51.030;4.696;2023-02-15T03:27:27;3.25;115.40
16505;HTU21D;8365;51.030;4.696;2023-02-15T03:30:02;3.36;114.83
16505;HTU21D;8365;51.030;4.696;2023-02-15T03:32:35;3.43;113.67
16505;HTU21D;8365;51.030;4.696;2023-02-15T03:35:07;3.44;112.97
16505;HTU21D;8365;51.030;4.696;2023-02-15T03:40:26;3.03;113.35
16505;HTU21D;8365;51.030;4.696;2023-02-15T03:48:47;3.06;113.44
16505;HTU21D;8365;51.030;4.696;2023-02-15T03:51:23;2.86;115.57
16505;HTU21D;8365;51.030;4.696;2023-02-15T03:54:16;2.56;118.23
16505;HTU21D;8365;51.030;4.696;2023-02-15T03:57:11;2.71;115.22
16505;HTU21D;8365;51.030;4.696;2023-02-15T04:00:05;2.65;114.55
16505;HTU21D;8365;51.030;4.696;2023-02-15T04:02:58;2.71;114.24
16505;HTU21D;8365;51.030;4.696;2023-02-15T04:05:31;2.60;115.48
16505;HTU21D;8365;51.030;4.696;2023-02-15T04:08:02;2.32;118.60
16505;HTU21D;8365;51.030;4.696;2023-02-15T04:10:35;2.31;118.89
16505;HTU21D;8365;51.030;4.696;2023-02-15T04:13:32;2.13;118.99
16505;HTU21D;8365;51.030;4.696;2023-02-15T04:16:02;2.14;118.99
16505;HTU21D;8365;51.030;4.696;2023-02-15T04:18:38;2.24;118.69
16505;HTU21D;8365;51.030;4.696;2023-02-15T04:21:29;2.22;118.17
16505;HTU21D;8365;51.030;4.696;2023-02-15T04:24:21;2.21;117.76
16505;HTU21D;8365;51.030;4.696;2023-02-15T04:27:10;2.19;118.99
16505;HTU21D;8365;51.030;4.696;2023-02-15T04:29:40;2.31;117.31
16505;HTU21D;8365;51.030;4.696;2023-02-15T04:32:11;2.37;116.78
16505;HTU21D;8365;51.030;4.696;2023-02-15T04:34:41;2.22;117.28
16505;HTU21D;8365;51.030;4.696;2023-02-15T04:37:11;2.07;118.36
16505;HTU21D;8365;51.030;4.696;2023-02-15T04:39:42;2.17;118.21
16505;HTU21D;8365;51.030;4.696;2023-02-15T04:42:12;2.12;118.15
16505;HTU21D;8365;51.030;4.696;2023-02-15T04:44:43;2.12;118.21
16505;HTU21D;8365;51.030;4.696;2023-02-15T04:47:14;2.28;117.01
16505;HTU21D;8365;51.030;4.696;2023-02-15T04:49:44;2.36;117.01
16505;HTU21D;8365;51.030;4.696;2023-02-15T04:52:15;2.49;117.21
16505;HTU21D;8365;51.030;4.696;2023-02-15T04:54:47;2.44;117.32
16505;HTU21D;8365;51.030;4.696;2023-02-15T04:57:17;2.49;117.60
16505;HTU21D;8365;51.030;4.696;2023-02-15T04:59:48;2.55;117.01
16505;HTU21D;8365;51.030;4.696;2023-02-15T05:02:18;2.50;116.46
16505;HTU21D;8365;51.030;4.696;2023-02-15T05:04:49;2.47;117.89
16505;HTU21D;8365;51.030;4.696;2023-02-15T05:07:19;2.50;117.02
16505;HTU21D;8365;51.030;4.696;2023-02-15T05:09:53;2.58;117.07
16505;HTU21D;8365;51.030;4.696;2023-02-15T05:12:23;2.66;116.22
16505;HTU21D;8365;51.030;4.696;2023-02-15T05:14:53;2.68;115.05
16505;HTU21D;8365;51.030;4.696;2023-02-15T05:17:24;2.45;113.96
16505;HTU21D;8365;51.030;4.696;2023-02-15T05:19:54;2.43;114.41
16505;HTU21D;8365;51.030;4.696;2023-02-15T05:22:25;2.29;114.84
16505;HTU21D;8365;51.030;4.696;2023-02-15T05:24:55;1.92;116.87
16505;HTU21D;8365;51.030;4.696;2023-02-15T05:27:45;2.02;116.38
16505;HTU21D;8365;51.030;4.696;2023-02-15T05:30:34;1.83;117.68
16505;HTU21D;8365;51.030;4.696;2023-02-15T05:33:06;1.69;118.99
16505;HTU21D;8365;51.030;4.696;2023-02-15T05:35:36;1.77;117.83
16505;HTU21D;8365;51.030;4.696;2023-02-15T05:38:07;1.60;118.99
16505;HTU21D;8365;51.030;4.696;2023-02-15T05:40:37;1.55;118.99
16505;HTU21D;8365;51.030;4.696;2023-02-15T05:43:08;1.56;118.99
16505;HTU21D;8365;51.030;4.696;2023-02-15T05:45:38;1.67;118.99
16505;HTU21D;8365;51.030;4.696;2023-02-15T05:48:09;1.71;118.99
16505;HTU21D;8365;51.030;4.696;2023-02-15T05:50:39;1.85;118.99
16505;HTU21D;8365;51.030;4.696;2023-02-15T05:53:10;1.76;118.99
16505;HTU21D;8365;51.030;4.696;2023-02-15T05:55:41;1.72;118.99
16505;HTU21D;8365;51.030;4.696;2023-02-15T05:58:11;1.67;118.99
16505;HTU21D;8365;51.030;4.696;2023-02-15T06:00:42;1.79;118.66
16505;HTU21D;8365;51.030;4.696;2023-02-15T06:03:12;1.86;117.93
16505;HTU21D;8365;51.030;4.696;2023-02-15T06:05:43;1.77;117.89
16505;HTU21D;8365;51.030;4.696;2023-02-15T06:08:13;1.65;118.72
16505;HTU21D;8365;51.030;4.696;2023-02-15T06:10:45;1.52;118.99
16505;HTU21D;8365;51.030;4.696;2023-02-15T06:13:16;1.47;118.99
16505;HTU21D;8365;51.030;4.696;2023-02-15T06:15:46;1.62;118.99
16505;HTU21D;8365;51.030;4.696;2023-02-15T06:18:17;1.60;118.99
16505;HTU21D;8365;51.030;4.696;2023-02-15T06:20:48;1.67;118.99
16505;HTU21D;8365;51.030;4.696;2023-02-15T06:23:18;1.70;118.99
16505;HTU21D;8365;51.030;4.696;2023-02-15T06:25:49;1.61;118.99
16505;HTU21D;8365;51.030;4.696;2023-02-15T06:28:19;1.73;118.99
16505;HTU21D;8365;51.030;4.696;2023-02-15T06:30:50;1.36;118.99
16505;HTU21D;8365;51.030;4.696;2023-02-15T06:33:21;1.09;118.99
16505;HTU21D;8365;51.030;4.696;2023-02-15T06:35:52;1.19;118.99
16505;HTU21D;8365;51.030;4.696;2023-02-15T06:38:22;1.29;118.99
16505;HTU21D;8365;51.030;4.696;2023-02-15T06:40:53;1.29;118.99
16505;HTU21D;8365;51.030;4.696;2023-02-15T06:43:23;1.31;118.99
16505;HTU21D;8365;51.030;4.696;2023-02-15T06:45:53;1.40;118.99
16505;HTU21D;8365;51.030;4.696;2023-02-15T06:48:24;1.51;118.99
16505;HTU21D;8365;51.030;4.696;2023-02-15T06:50:57;1.31;118.99
16505;HTU21D;8365;51.030;4.696;2023-02-15T06:53:28;1.47;118.99
16505;HTU21D;8365;51.030;4.696;2023-02-15T06:56:03;1.49;118.99
16505;HTU21D;8365;51.030;4.696;2023-02-15T06:58:42;1.12;118.99
16505;HTU21D;8365;51.030;4.696;2023-02-15T07:01:15;0.86;118.99
16505;HTU21D;8365;51.030;4.696;2023-02-15T07:03:46;1.38;118.99
16505;HTU21D;8365;51.030;4.696;2023-02-15T07:06:16;1.53;118.99
16505;HTU21D;8365;51.030;4.696;2023-02-15T07:08:49;1.54;118.99
16505;HTU21D;8365;51.030;4.696;2023-02-15T07:11:19;1.28;118.99
16505;HTU21D;8365;51.030;4.696;2023-02-15T07:14:09;1.46;118.99
16505;HTU21D;8365;51.030;4.696;2023-02-15T07:16:39;1.56;118.99
16505;HTU21D;8365;51.030;4.696;2023-02-15T07:19:10;1.68;118.99
16505;HTU21D;8365;51.030;4.696;2023-02-15T07:21:40;1.47;118.99
16505;HTU21D;8365;51.030;4.696;2023-02-15T07:24:10;1.54;118.99
16505;HTU21D;8365;51.030;4.696;2023-02-15T07:26:41;1.64;118.99
16505;HTU21D;8365;51.030;4.696;2023-02-15T07:29:11;1.99;118.99
16505;HTU21D;8365;51.030;4.696;2023-02-15T07:31:42;2.45;118.99
16505;HTU21D;8365;51.030;4.696;2023-02-15T07:34:17;2.69;117.23
16505;HTU21D;8365;51.030;4.696;2023-02-15T07:36:50;2.99;115.05
16505;HTU21D;8365;51.030;4.696;2023-02-15T07:39:21;3.27;115.47
16505;HTU21D;8365;51.030;4.696;2023-02-15T07:41:51;3.14;113.32
16505;HTU21D;8365;51.030;4.696;2023-02-15T07:44:22;3.63;113.32
16505;HTU21D;8365;51.030;4.696;2023-02-15T07:46:52;4.00;110.77
16505;HTU21D;8365;51.030;4.696;2023-02-15T07:49:22;4.19;109.74
16505;HTU21D;8365;51.030;4.696;2023-02-15T07:51:53;4.50;108.46
16505;HTU21D;8365;51.030;4.696;2023-02-15T07:54:23;4.68;106.58
16505;HTU21D;8365;51.030;4.696;2023-02-15T07:56:54;4.84;105.73
16505;HTU21D;8365;51.030;4.696;2023-02-15T07:59:24;4.76;104.04
16505;HTU21D;8365;51.030;4.696;2023-02-15T08:01:55;4.87;105.35
16505;HTU21D;8365;51.030;4.696;2023-02-15T08:04:26;4.80;105.28
16505;HTU21D;8365;51.030;4.696;2023-02-15T08:06:56;5.19;103.95
16505;HTU21D;8365;51.030;4.696;2023-02-15T08:09:27;5.22;104.53
16505;HTU21D;8365;51.030;4.696;2023-02-15T08:11:57;5.39;104.40
16505;HTU21D;8365;51.030;4.696;2023-02-15T08:14:28;5.42;104.02
16505;HTU21D;8365;51.030;4.696;2023-02-15T08:16:59;5.43;102.67
16505;HTU21D;8365;51.030;4.696;2023-02-15T08:19:33;5.33;103.71
16505;HTU21D;8365;51.030;4.696;2023-02-15T08:22:07;5.23;104.85
16505;HTU21D;8365;51.030;4.696;2023-02-15T08:24:38;5.02;106.93
16505;HTU21D;8365;51.030;4.696;2023-02-15T08:27:10;5.09;107.87
16505;HTU21D;8365;51.030;4.696;2023-02-15T08:29:41;5.22;108.15
16505;HTU21D;8365;51.030;4.696;2023-02-15T08:32:12;5.36;107.16
16505;HTU21D;8365;51.030;4.696;2023-02-15T08:34:46;5.46;108.03
16505;HTU21D;8365;51.030;4.696;2023-02-15T08:37:17;5.60;107.51
16505;HTU21D;8365;51.030;4.696;2023-02-15T08:39:47;5.71;108.04
16505;HTU21D;8365;51.030;4.696;2023-02-15T08:42:18;5.91;107.39
16505;HTU21D;8365;51.030;4.696;2023-02-15T08:44:50;6.09;108.13
16505;HTU21D;8365;51.030;4.696;2023-02-15T08:47:21;6.23;107.91
16505;HTU21D;8365;51.030;4.696;2023-02-15T08:49:52;6.55;107.59
16505;HTU21D;8365;51.030;4.696;2023-02-15T08:52:22;6.75;107.04
16505;HTU21D;8365;51.030;4.696;2023-02-15T08:54:53;6.91;107.08
16505;HTU21D;8365;51.030;4.696;2023-02-15T08:57:24;7.05;107.69
16505;HTU21D;8365;51.030;4.696;2023-02-15T08:59:54;7.34;107.08
16505;HTU21D;8365;51.030;4.696;2023-02-15T09:02:25;7.53;106.80
16505;HTU21D;8365;51.030;4.696;2023-02-15T09:04:55;7.64;107.24
16505;HTU21D;8365;51.030;4.696;2023-02-15T09:07:26;7.90;106.48
16505;HTU21D;8365;51.030;4.696;2023-02-15T09:09:56;8.04;106.43
16505;HTU21D;8365;51.030;4.696;2023-02-15T09:12:27;7.94;108.01
16505;HTU21D;8365;51.030;4.696;2023-02-15T09:14:57;8.17;106.40
16505;HTU21D;8365;51.030;4.696;2023-02-15T09:17:27;8.17;108.29
16505;HTU21D;8365;51.030;4.696;2023-02-15T09:19:58;8.33;106.95
16505;HTU21D;8365;51.030;4.696;2023-02-15T09:22:28;7.96;109.44
16505;HTU21D;8365;51.030;4.696;2023-02-15T09:25:01;8.00;109.19
16505;HTU21D;8365;51.030;4.696;2023-02-15T09:27:31;8.09;108.97
16505;HTU21D;8365;51.030;4.696;2023-02-15T09:30:05;8.18;107.74
16505;HTU21D;8365;51.030;4.696;2023-02-15T09:32:35;8.57;106.64
16505;HTU21D;8365;51.030;4.696;2023-02-15T09:35:06;8.77;104.94
16505;HTU21D;8365;51.030;4.696;2023-02-15T09:37:36;8.76;104.85
16505;HTU21D;8365;51.030;4.696;2023-02-15T09:40:07;9.08;103.36
16505;HTU21D;8365;51.030;4.696;2023-02-15T09:43:00;9.35;101.41
16505;HTU21D;8365;51.030;4.696;2023-02-15T09:48:53;9.64;99.89
16505;HTU21D;8365;51.030;4.696;2023-02-15T09:57:38;9.80;96.00
16505;HTU21D;8365;51.030;4.696;2023-02-15T10:03:04;10.04;93.24
16505;HTU21D;8365;51.030;4.696;2023-02-15T10:09:00;10.59;91.37
16505;HTU21D;8365;51.030;4.696;2023-02-15T10:11:47;10.70;89.71
16505;HTU21D;8365;51.030;4.696;2023-02-15T10:14:40;10.62;89.39
16505;HTU21D;8365;51.030;4.696;2023-02-15T10:29:07;10.79;88.34
16505;HTU21D;8365;51.030;4.696;2023-02-15T10:31:51;11.12;87.52
16505;HTU21D;8365;51.030;4.696;2023-02-15T10:34:37;11.30;85.71
16505;HTU21D;8365;51.030;4.696;2023-02-15T10:37:32;11.49;84.12
16505;HTU21D;8365;51.030;4.696;2023-02-15T10:40:22;11.96;83.47
16505;HTU21D;8365;51.030;4.696;2023-02-15T10:51:54;13.75;70.93
16505;HTU21D;8365;51.030;4.696;2023-02-15T11:00:31;15.11;61.62
16505;HTU21D;8365;51.030;4.696;2023-02-15T11:06:06;16.92;57.13
16505;HTU21D;8365;51.030;4.696;2023-02-15T11:08:46;17.47;54.22
16505;HTU21D;8365;51.030;4.696;2023-02-15T11:11:23;18.23;50.01
16505;HTU21D;8365;51.030;4.696;2023-02-15T11:14:02;18.97;48.63
16505;HTU21D;8365;51.030;4.696;2023-02-15T11:16:37;18.51;48.12
16505;HTU21D;8365;51.030;4.696;2023-02-15T11:19:14;19.12;47.05
16505;HTU21D;8365;51.030;4.696;2023-02-15T11:21:49;19.96;44.45
16505;HTU21D;8365;51.030;4.696;2023-02-15T11:24:21;20.50;43.64
16505;HTU21D;8365;51.030;4.696;2023-02-15T11:29:41;21.08;41.45
16505;HTU21D;8365;51.030;4.696;2023-02-15T11:32:25;20.19;42.34
16505;HTU21D;8365;51.030;4.696;2023-02-15T11:37:53;21.10;40.89
16505;HTU21D;8365;51.030;4.696;2023-02-15T11:40:29;20.45;41.81
16505;HTU21D;8365;51.030;4.696;2023-02-15T11:43:05;20.43;42.53
16505;HTU21D;8365;51.030;4.696;2023-02-15T11:45:45;20.70;42.04
16505;HTU21D;8365;51.030;4.696;2023-02-15T11:48:15;19.68;43.54
16505;HTU21D;8365;51.030;4.696;2023-02-15T11:50:46;20.12;43.18
16505;HTU21D;8365;51.030;4.696;2023-02-15T11:53:19;19.79;44.00
16505;HTU21D;8365;51.030;4.696;2023-02-15T11:56:00;19.17;45.41
16505;HTU21D;8365;51.030;4.696;2023-02-15T11:58:37;19.84;43.94
16505;HTU21D;8365;51.030;4.696;2023-02-15T12:01:14;19.72;44.67
16505;HTU21D;8365;51.030;4.696;2023-02-15T12:06:21;21.01;42.33
16505;HTU21D;8365;51.030;4.696;2023-02-15T12:11:36;21.13;41.27
16505;HTU21D;8365;51.030;4.696;2023-02-15T12:14:13;21.50;40.78
16505;HTU21D;8365;51.030;4.696;2023-02-15T12:16:50;21.44;39.42
16505;HTU21D;8365;51.030;4.696;2023-02-15T12:19:36;20.91;41.47
16505;HTU21D;8365;51.030;4.696;2023-02-15T12:22:23;20.74;40.66
16505;HTU21D;8365;51.030;4.696;2023-02-15T12:24:56;20.50;41.42
16505;HTU21D;8365;51.030;4.696;2023-02-15T12:27:43;20.54;41.04
16505;HTU21D;8365;51.030;4.696;2023-02-15T12:30:29;20.22;41.22
16505;HTU21D;8365;51.030;4.696;2023-02-15T12:33:13;21.03;40.51
16505;HTU21D;8365;51.030;4.696;2023-02-15T12:35:47;20.83;41.78
16505;HTU21D;8365;51.030;4.696;2023-02-15T12:38:24;20.25;43.10
16505;HTU21D;8365;51.030;4.696;2023-02-15T12:41:04;20.04;41.74
16505;HTU21D;8365;51.030;4.696;2023-02-15T12:43:37;19.31;44.71
16505;HTU21D;8365;51.030;4.696;2023-02-15T12:46:28;18.38;46.71
16505;HTU21D;8365;51.030;4.696;2023-02-15T12:56:51;17.58;49.31
16505;HTU21D;8365;51.030;4.696;2023-02-15T12:59:21;18.34;48.20
16505;HTU21D;8365;51.030;4.696;2023-02-15T13:01:52;18.66;47.73
16505;HTU21D;8365;51.030;4.696;2023-02-15T13:04:28;18.65;45.76
16505;HTU21D;8365;51.030;4.696;2023-02-15T13:07:01;19.62;45.13
16505;HTU21D;8365;51.030;4.696;2023-02-15T13:12:18;20.01;44.19
16505;HTU21D;8365;51.030;4.696;2023-02-15T13:14:52;20.90;42.76
16505;HTU21D;8365;51.030;4.696;2023-02-15T13:17:27;20.99;41.30
16505;HTU21D;8365;51.030;4.696;2023-02-15T13:20:20;21.06;41.60
16505;HTU21D;8365;51.030;4.696;2023-02-15T13:23:00;20.93;41.23
16505;HTU21D;8365;51.030;4.696;2023-02-15T13:25:39;20.73;42.55
16505;HTU21D;8365;51.030;4.696;2023-02-15T13:28:14;20.72;41.84
16505;HTU21D;8365;51.030;4.696;2023-02-15T13:30:47;20.49;41.87
16505;HTU21D;8365;51.030;4.696;2023-02-15T13:36:01;20.85;42.42
16505;HTU21D;8365;51.030;4.696;2023-02-15T13:38:54;20.40;42.56
16505;HTU21D;8365;51.030;4.696;2023-02-15T13:41:49;21.28;41.62
16505;HTU21D;8365;51.030;4.696;2023-02-15T13:56:38;21.23;41.60
16505;HTU21D;8365;51.030;4.696;2023-02-15T14:19:22;18.86;46.96
16505;HTU21D;8365;51.030;4.696;2023-02-15T14:24:45;18.44;48.50
16505;HTU21D;8365;51.030;4.696;2023-02-15T14:35:04;19.00;47.02
16505;HTU21D;8365;51.030;4.696;2023-02-15T14:37:49;18.34;47.51
16505;HTU21D;8365;51.030;4.696;2023-02-15T14:49:03;16.93;51.87
16505;HTU21D;8365;51.030;4.696;2023-02-15T14:51:53;17.48;50.21
16505;HTU21D;8365;51.030;4.696;2023-02-15T15:02:20;16.52;53.06
16505;HTU21D;8365;51.030;4.696;2023-02-15T15:07:24;16.72;52.30
16505;HTU21D;8365;51.030;4.696;2023-02-15T15:12:54;16.64;53.12
16505;HTU21D;8365;51.030;4.696;2023-02-15T15:18:09;16.82;52.53
16505;HTU21D;8365;51.030;4.696;2023-02-15T15:33:58;15.60;57.48
16505;HTU21D;8365;51.030;4.696;2023-02-15T15:42:48;15.70;57.36
16505;HTU21D;8365;51.030;4.696;2023-02-15T15:48:28;16.34;56.58
16505;HTU21D;8365;51.030;4.696;2023-02-15T15:51:03;16.08;56.41
16505;HTU21D;8365;51.030;4.696;2023-02-15T15:53:42;16.13;56.62
16505;HTU21D;8365;51.030;4.696;2023-02-15T15:56:18;16.14;56.74
16505;HTU21D;8365;51.030;4.696;2023-02-15T15:58:56;15.72;58.14
16505;HTU21D;8365;51.030;4.696;2023-02-15T16:01:35;15.28;58.46
16505;HTU21D;8365;51.030;4.696;2023-02-15T16:04:13;15.19;60.27
16505;HTU21D;8365;51.030;4.696;2023-02-15T16:06:44;15.01;60.64
16505;HTU21D;8365;51.030;4.696;2023-02-15T16:09:35;15.00;60.94
16505;HTU21D;8365;51.030;4.696;2023-02-15T16:12:14;14.93;62.15
16505;HTU21D;8365;51.030;4.696;2023-02-15T16:14:46;14.85;62.28
16505;HTU21D;8365;51.030;4.696;2023-02-15T16:17:24;14.70;63.28
16505;HTU21D;8365;51.030;4.696;2023-02-15T16:20:11;14.64;63.60
16505;HTU21D;8365;51.030;4.696;2023-02-15T16:22:46;14.64;63.77
16505;HTU21D;8365;51.030;4.696;2023-02-15T16:28:19;14.53;64.25
16505;HTU21D;8365;51.030;4.696;2023-02-15T16:33:37;14.52;65.04
16505;HTU21D;8365;51.030;4.696;2023-02-15T16:36:20;14.45;65.27
16505;HTU21D;8365;51.030;4.696;2023-02-15T16:41:29;14.13;66.59
16505;HTU21D;8365;51.030;4.696;2023-02-15T16:44:16;14.11;66.11
16505;HTU21D;8365;51.030;4.696;2023-02-15T16:46:52;13.96;67.10
16505;HTU21D;8365;51.030;4.696;2023-02-15T16:49:28;13.62;68.97
16505;HTU21D;8365;51.030;4.696;2023-02-15T16:52:02;13.45;69.74
16505;HTU21D;8365;51.030;4.696;2023-02-15T16:54:35;13.32;70.93
16505;HTU21D;8365;51.030;4.696;2023-02-15T16:57:16;13.56;69.96
16505;HTU21D;8365;51.030;4.696;2023-02-15T16:59:49;13.58;69.39
16505;HTU21D;8365;51.030;4.696;2023-02-15T17:02:26;13.40;70.43
16505;HTU21D;8365;51.030;4.696;2023-02-15T17:07:42;13.47;70.31
16505;HTU21D;8365;51.030;4.696;2023-02-15T17:10:30;13.31;70.80
16505;HTU21D;8365;51.030;4.696;2023-02-15T17:18:33;12.89;74.69
16505;HTU21D;8365;51.030;4.696;2023-02-15T17:21:10;12.94;73.68
16505;HTU21D;8365;51.030;4.696;2023-02-15T17:23:50;12.93;73.15
16505;HTU21D;8365;51.030;4.696;2023-02-15T17:26:25;12.82;73.54
16505;HTU21D;8365;51.030;4.696;2023-02-15T17:28:59;12.61;75.60
16505;HTU21D;8365;51.030;4.696;2023-02-15T17:31:32;12.65;75.14
16505;HTU21D;8365;51.030;4.696;2023-02-15T17:34:05;12.53;75.74
16505;HTU21D;8365;51.030;4.696;2023-02-15T17:36:56;12.51;76.31
16505;HTU21D;8365;51.030;4.696;2023-02-15T17:39:27;12.37;77.69
16505;HTU21D;8365;51.030;4.696;2023-02-15T17:41:58;12.31;78.31
16505;HTU21D;8365;51.030;4.696;2023-02-15T17:44:29;12.13;79.64
16505;HTU21D;8365;51.030;4.696;2023-02-15T17:47:00;12.00;81.59
16505;HTU21D;8365;51.030;4.696;2023-02-15T17:49:30;12.10;81.07
16505;HTU21D;8365;51.030;4.696;2023-02-15T17:52:08;12.06;81.27
16505;HTU21D;8365;51.030;4.696;2023-02-15T17:54:40;11.97;81.94
16505;HTU21D;8365;51.030;4.696;2023-02-15T17:57:29;11.93;81.83
16505;HTU21D;8365;51.030;4.696;2023-02-15T18:00:00;11.91;82.15
16505;HTU21D;8365;51.030;4.696;2023-02-15T18:02:49;11.91;81.95
16505;HTU21D;8365;51.030;4.696;2023-02-15T18:05:38;11.99;82.09
16505;HTU21D;8365;51.030;4.696;2023-02-15T18:08:27;11.77;83.63
16505;HTU21D;8365;51.030;4.696;2023-02-15T18:11:16;11.78;84.27
16505;HTU21D;8365;51.030;4.696;2023-02-15T18:14:09;11.62;85.69
16505;HTU21D;8365;51.030;4.696;2023-02-15T18:16:42;11.59;85.40
16505;HTU21D;8365;51.030;4.696;2023-02-15T18:19:17;11.72;85.92
16505;HTU21D;8365;51.030;4.696;2023-02-15T18:21:48;11.73;84.46
16505;HTU21D;8365;51.030;4.696;2023-02-15T18:24:22;11.48;87.22
16505;HTU21D;8365;51.030;4.696;2023-02-15T18:26:54;11.27;90.63
16505;HTU21D;8365;51.030;4.696;2023-02-15T18:29:24;11.04;92.46
16505;HTU21D;8365;51.030;4.696;2023-02-15T18:31:55;11.12;91.79
16505;HTU21D;8365;51.030;4.696;2023-02-15T18:34:31;11.09;91.59
16505;HTU21D;8365;51.030;4.696;2023-02-15T18:37:02;10.92;93.96
16505;HTU21D;8365;51.030;4.696;2023-02-15T18:39:37;10.85;94.69
16505;HTU21D;8365;51.030;4.696;2023-02-15T18:44:54;10.84;96.07
16505;HTU21D;8365;51.030;4.696;2023-02-15T18:47:25;10.69;97.05
16505;HTU21D;8365;51.030;4.696;2023-02-15T18:49:56;10.65;98.55
16505;HTU21D;8365;51.030;4.696;2023-02-15T18:52:32;10.73;98.27
16505;HTU21D;8365;51.030;4.696;2023-02-15T18:57:50;10.79;98.21
16505;HTU21D;8365;51.030;4.696;2023-02-15T19:00:24;10.86;97.34
16505;HTU21D;8365;51.030;4.696;2023-02-15T19:02:58;10.73;98.12
16505;HTU21D;8365;51.030;4.696;2023-02-15T19:05:29;10.74;98.91
16505;HTU21D;8365;51.030;4.696;2023-02-15T19:08:01;10.90;97.95
16505;HTU21D;8365;51.030;4.696;2023-02-15T19:10:32;10.94;97.93
16505;HTU21D;8365;51.030;4.696;2023-02-15T19:13:04;10.98;97.38
16505;HTU21D;8365;51.030;4.696;2023-02-15T19:15:38;10.92;96.74
16505;HTU21D;8365;51.030;4.696;2023-02-15T19:18:08;10.84;96.91
16505;HTU21D;8365;51.030;4.696;2023-02-15T19:20:43;10.80;98.24
16505;HTU21D;8365;51.030;4.696;2023-02-15T19:23:22;10.71;99.19
16505;HTU21D;8365;51.030;4.696;2023-02-15T19:25:53;10.65;98.64
16505;HTU21D;8365;51.030;4.696;2023-02-15T19:28:32;10.83;98.07
16505;HTU21D;8365;51.030;4.696;2023-02-15T19:31:03;10.78;98.43
16505;HTU21D;8365;51.030;4.696;2023-02-15T19:33:34;10.84;97.73
16505;HTU21D;8365;51.030;4.696;2023-02-15T19:36:06;10.82;97.74
16505;HTU21D;8365;51.030;4.696;2023-02-15T19:38:45;10.75;98.35
16505;HTU21D;8365;51.030;4.696;2023-02-15T19:41:29;10.85;96.84
16505;HTU21D;8365;51.030;4.696;2023-02-15T19:44:01;10.75;97.15
16505;HTU21D;8365;51.030;4.696;2023-02-15T19:46:31;10.74;97.11
16505;HTU21D;8365;51.030;4.696;2023-02-15T19:49:05;10.66;98.63
16505;HTU21D;8365;51.030;4.696;2023-02-15T19:51:36;10.52;100.18
16505;HTU21D;8365;51.030;4.696;2023-02-15T19:54:20;10.29;102.70
16505;HTU21D;8365;51.030;4.696;2023-02-15T19:56:54;10.24;104.37